EDT,Max TemperatureF,Mean TemperatureF,Min TemperatureF,Max Dew PointF,MeanDew PointF,Min DewpointF,Max Humidity, Mean Humidity, Min Humidity, Max Sea Level PressureIn, Mean Sea Level PressureIn, Min Sea Level PressureIn, Max VisibilityMiles, Mean VisibilityMiles, Min VisibilityMiles, Max Wind SpeedMPH, Mean Wind SpeedMPH, Max Gust SpeedMPH,PrecipitationIn, CloudCover, Events, WindDirDegrees
2012-10-1,59,54,49,57,51,47,100,89,72,29.69,29.58,29.54,10,9,1,15,8,24,T,6,Rain,171
2012-10-2,71,60,48,49,46,43,96,71,38,29.99,29.85,29.70,10,10,10,20,9,26,0.00,1,,272
2012-10-3,65,54,42,48,43,38,94,69,38,30.23,30.13,30.00,10,10,10,15,7,21,0.00,1,,322
2012-10-4,58,47,36,50,44,36,100,86,64,30.25,30.13,29.99,10,10,10,13,5,17,0.44,4,Rain,104
2012-10-5,61,56,50,57,54,49,100,94,82,29.98,29.86,29.80,10,10,10,14,6,17,0.13,8,Rain,160
2012-10-6,59,51,42,57,51,41,100,95,87,29.80,29.68,29.57,10,10,10,18,9,25,0.49,7,Rain,217
2012-10-7,48,44,39,41,39,36,96,85,71,30.02,29.88,29.70,10,10,10,18,7,24,T,5,Rain,261
2012-10-8,45,39,33,37,34,26,100,85,58,30.33,30.11,29.99,10,10,10,15,5,23,0.13,6,Rain,270
2012-10-9,52,40,28,33,29,25,100,74,38,30.41,30.32,30.19,10,10,10,15,6,21,0.00,1,,145
2012-10-10,50,41,31,50,40,27,100,89,70,30.19,29.89,29.57,10,10,10,20,9,25,0.75,6,Rain,135
2012-10-11,47,39,31,46,32,21,97,76,42,29.93,29.68,29.50,10,10,10,28,12,43,0.13,6,Rain,281
2012-10-12,39,34,29,36,29,23,100,83,59,30.13,29.89,29.76,10,10,9,23,12,32,0.11,6,Rain-Snow,276
2012-10-13,41,35,28,23,19,17,78,58,43,30.25,30.20,30.13,10,10,10,24,11,30,0.00,3,,285
2012-10-14,38,34,30,34,31,23,96,87,72,30.20,30.08,29.96,10,10,9,12,5,16,0.10,8,Rain-Snow,142
2012-10-15,55,45,35,55,45,34,100,99,96,29.93,29.69,29.55,10,10,10,14,8,18,0.59,8,Rain,116
2012-10-16,52,43,34,52,41,30,100,91,82,29.63,29.51,29.43,10,10,10,17,8,23,0.21,7,Rain,269
2012-10-17,50,41,31,31,29,28,88,71,50,29.98,29.84,29.66,10,10,10,17,8,22,0.00,1,,311
2012-10-18,55,42,28,37,32,27,96,72,47,30.13,30.09,29.98,10,10,10,12,6,16,0.00,1,,147
2012-10-19,53,47,40,46,43,36,100,86,69,30.18,30.11,29.96,10,9,0,16,9,23,0.06,6,Fog-Rain,142
2012-10-20,61,54,47,61,57,45,100,98,93,29.93,29.70,29.56,10,3,0,23,12,31,0.78,8,Fog-Rain-Thunderstorm,147
2012-10-21,55,50,44,59,46,39,100,85,62,29.64,29.59,29.54,10,8,0,20,11,26,0.01,6,Fog-Rain,241
2012-10-22,52,45,38,41,35,27,93,71,48,29.81,29.62,29.52,10,10,10,32,18,43,0.02,6,Rain,279
2012-10-23,47,40,32,28,28,26,78,66,52,30.06,29.96,29.83,10,10,10,25,15,35,0.00,4,,314
2012-10-24,41,34,27,25,23,21,85,69,47,30.26,30.15,30.06,10,10,10,24,10,30,0.00,1,,318
2012-10-25,49,36,23,28,23,19,96,66,34,30.34,30.28,30.24,10,9,2,10,4,14,0.00,0,,302
2012-10-26,58,47,35,37,30,24,67,54,40,30.24,30.17,30.11,10,10,10,9,5,12,0.00,3,,138
2012-10-27,64,53,41,42,38,32,76,59,45,30.15,30.12,30.09,10,10,10,10,4,15,0.00,2,,97
2012-10-28,51,46,41,46,42,29,93,84,58,30.19,30.15,30.08,10,10,10,12,7,15,0.00,6,,52
2012-10-29,57,53,49,52,48,46,94,86,74,30.08,30.01,29.97,10,9,2,22,12,30,T,8,Rain,67
2012-10-30,57,54,51,54,51,46,100,95,82,29.98,29.91,29.83,10,7,2,22,13,32,1.21,8,Rain-Thunderstorm,70
2012-10-31,60,56,51,56,53,50,100,96,83,29.83,29.68,29.47,10,9,4,20,12,28,0.62,8,Rain,85